createdAt,value
2017-01-01T00:00:25.295Z,83.81
2017-01-01T00:00:53.648Z,83.51
2017-01-01T00:01:21.933Z,83.61
2017-01-01T00:01:50.233Z,82.84
2017-01-01T00:02:18.378Z,82.93
2017-01-01T00:02:46.345Z,83.12
2017-01-01T00:03:14.427Z,82.99
2017-01-01T00:04:25.472Z,83.18
2017-01-01T00:04:53.546Z,83.18
2017-01-01T00:05:21.711Z,83.37
2017-01-01T00:05:49.918Z,83.37
2017-01-01T00:06:18.213Z,83.28
2017-01-01T00:06:46.488Z,83.67
2017-01-01T00:07:14.763Z,83.57
2017-01-01T00:07:42.933Z,84.16
2017-01-01T00:08:11.104Z,83.76
2017-01-01T00:08:39.124Z,83.76
2017-01-01T00:09:07.326Z,83.28
2017-01-01T00:10:18.722Z,83.57
2017-01-01T00:10:47.081Z,83.57
2017-01-01T00:11:15.336Z,83.76
2017-01-01T00:11:43.368Z,83.37
2017-01-01T00:12:11.612Z,83.86
2017-01-01T00:12:39.785Z,84.06
2017-01-01T00:13:07.964Z,84.16
2017-01-01T00:13:36.279Z,84.16
2017-01-01T00:14:04.397Z,84.45
2017-01-01T00:14:32.438Z,84.55
2017-01-01T00:15:00.691Z,84.64
2017-01-01T00:16:11.991Z,84.64
2017-01-01T00:16:40.192Z,84.35
2017-01-01T00:17:08.446Z,83.57
2017-01-01T00:17:36.414Z,83.28
2017-01-01T00:18:04.564Z,83.28
2017-01-01T00:18:32.821Z,83.37
2017-01-01T00:19:01.053Z,83.47
2017-01-01T00:19:29.230Z,83.37
2017-01-01T00:19:57.340Z,82.79
2017-01-01T00:20:25.546Z,82.89
2017-01-01T00:20:53.817Z,82.79
2017-01-01T00:22:05.116Z,82.4
2017-01-01T00:22:33.285Z,82.89
2017-01-01T00:23:01.535Z,82.89
2017-01-01T00:23:29.646Z,82.6
2017-01-01T00:23:57.978Z,82.6
2017-01-01T00:24:26.034Z,82.11
2017-01-01T00:24:54.123Z,82.6
2017-01-01T00:25:22.296Z,82.4
2017-01-01T00:25:50.321Z,81.92
2017-01-01T00:26:18.544Z,81.53
2017-01-01T00:26:46.717Z,81.63
2017-01-01T00:27:57.834Z,81.73
2017-01-01T00:28:25.917Z,81.43
2017-01-01T00:28:54.077Z,81.73
2017-01-01T00:29:22.280Z,81.53
2017-01-01T00:29:50.430Z,82.02
2017-01-01T00:30:18.674Z,81.88
2017-01-01T00:30:47.039Z,82.37
2017-01-01T00:31:15.305Z,82.95
2017-01-01T00:31:43.243Z,82.65
2017-01-01T00:32:11.273Z,82.6
2017-01-01T00:32:39.538Z,82.56
2017-01-01T00:33:50.739Z,82.75
2017-01-01T00:34:18.814Z,82.56
2017-01-01T00:34:46.885Z,82.46
2017-01-01T00:35:15.176Z,82.27
2017-01-01T00:35:43.415Z,82.65
2017-01-01T00:36:11.470Z,82.75
2017-01-01T00:36:39.644Z,82.46
2017-01-01T00:37:08.006Z,83.14
2017-01-01T00:37:36.032Z,83.34
2017-01-01T00:38:04.337Z,83.24
2017-01-01T00:38:32.421Z,83.34
2017-01-01T00:39:43.440Z,82.95
2017-01-01T00:40:11.423Z,82.75
2017-01-01T00:40:39.581Z,83.04
2017-01-01T00:41:07.697Z,83.14
2017-01-01T00:41:36.034Z,83.14
2017-01-01T00:42:04.304Z,83.24
2017-01-01T00:42:32.573Z,83.14
2017-01-01T00:43:00.846Z,83.34
2017-01-01T00:43:28.967Z,83.14
2017-01-01T00:43:57.079Z,82.75
2017-01-01T00:44:25.253Z,82.95
2017-01-01T00:45:36.644Z,82.46
2017-01-01T00:46:04.912Z,82.46
2017-01-01T00:46:32.979Z,82.4
2017-01-01T00:47:01.093Z,82.85
2017-01-01T00:47:29.425Z,82.85
2017-01-01T00:47:57.580Z,82.75
2017-01-01T00:48:25.756Z,82.65
2017-01-01T00:48:54.028Z,82.95
2017-01-01T00:49:22.152Z,83.53
2017-01-01T00:49:50.273Z,83.14
2017-01-01T00:50:18.450Z,83.37
2017-01-01T00:51:29.750Z,83.28
2017-01-01T00:51:57.914Z,82.99
2017-01-01T00:52:26.075Z,83.18
2017-01-01T00:52:54.187Z,82.99
2017-01-01T00:53:22.332Z,83.09
2017-01-01T00:53:50.671Z,82.54
2017-01-01T00:54:19.034Z,81.57
2017-01-01T00:54:47.213Z,81.12
2017-01-01T00:55:15.517Z,80.83
2017-01-01T00:55:43.722Z,81.02
2017-01-01T00:56:11.996Z,80.29
2017-01-01T00:57:23.199Z,78.32
2017-01-01T00:57:51.368Z,78.03
2017-01-01T00:58:19.633Z,78.03
2017-01-01T00:58:47.932Z,77.83
2017-01-01T00:59:16.139Z,78.28
2017-01-01T00:59:44.397Z,78.28
2017-01-01T01:00:12.757Z,78.83
2017-01-01T01:00:41.027Z,79.41
2017-01-01T01:01:09.242Z,79.86
2017-01-01T01:01:37.456Z,80.54
2017-01-01T01:02:05.543Z,81.02
2017-01-01T01:03:16.744Z,81.28
2017-01-01T01:03:44.916Z,81.67
2017-01-01T01:04:12.992Z,82.15
2017-01-01T01:04:41.195Z,82.25
2017-01-01T01:05:09.158Z,82.6
2017-01-01T01:05:37.402Z,81.92
2017-01-01T01:06:05.586Z,82.89
2017-01-01T01:06:33.766Z,83.09
2017-01-01T01:07:01.885Z,82.89
2017-01-01T01:07:30.003Z,83.18
2017-01-01T01:07:58.366Z,83.37
2017-01-01T01:09:09.755Z,83.86
2017-01-01T01:09:37.923Z,83.72
2017-01-01T01:10:06.185Z,84.25
2017-01-01T01:10:34.390Z,84.01
2017-01-01T01:11:02.533Z,84.16
2017-01-01T01:11:30.749Z,84.5
2017-01-01T01:11:59.025Z,84.25
2017-01-01T01:12:26.926Z,84.35
2017-01-01T01:12:55.144Z,83.82
2017-01-01T01:13:23.270Z,84.7
2017-01-01T01:13:51.368Z,84.41
2017-01-01T01:15:02.758Z,84.6
2017-01-01T01:15:30.832Z,84.99
2017-01-01T01:15:59.088Z,85.43
2017-01-01T01:16:27.293Z,86.11
2017-01-01T01:16:55.441Z,87.13
2017-01-01T01:17:23.500Z,87.62
2017-01-01T01:17:51.774Z,88.2
2017-01-01T01:18:20.140Z,88.26
2017-01-01T01:18:48.351Z,88.65
2017-01-01T01:19:16.562Z,88.93
2017-01-01T01:19:44.922Z,89.42
2017-01-01T01:20:55.945Z,89.9
2017-01-01T01:21:24.206Z,89.86
2017-01-01T01:21:52.551Z,90.06
2017-01-01T01:22:20.470Z,90.83
2017-01-01T01:22:48.619Z,90.54
2017-01-01T01:23:16.859Z,90.93
2017-01-01T01:23:44.942Z,90.25
2017-01-01T01:24:13.118Z,90.34
2017-01-01T01:24:41.334Z,90.88
2017-01-01T01:25:09.548Z,90.64
2017-01-01T01:25:37.725Z,90.73
2017-01-01T01:26:48.935Z,91.22
2017-01-01T01:27:17.009Z,91.89
2017-01-01T01:27:45.265Z,91.61
2017-01-01T01:28:13.562Z,91.85
2017-01-01T01:28:41.807Z,92.05
2017-01-01T01:29:10.049Z,91.89
2017-01-01T01:29:38.129Z,91.95
2017-01-01T01:30:06.310Z,92.24
2017-01-01T01:30:34.528Z,91.66
2017-01-01T01:31:02.737Z,92.33
2017-01-01T01:31:30.817Z,91.61
2017-01-01T01:32:42.016Z,91.8
2017-01-01T01:33:10.181Z,91.75
2017-01-01T01:33:38.435Z,92.05
2017-01-01T01:34:06.640Z,92.33
2017-01-01T01:34:34.971Z,92.09
2017-01-01T01:35:03.118Z,92.05
2017-01-01T01:35:31.207Z,92.14
2017-01-01T01:35:59.568Z,92.53
2017-01-01T01:36:27.688Z,92.72
2017-01-01T01:36:55.714Z,93.6
2017-01-01T01:37:23.793Z,93.11
2017-01-01T01:38:34.903Z,93.4
2017-01-01T01:39:03.069Z,93.4
2017-01-01T01:39:31.134Z,93.4
2017-01-01T01:39:59.241Z,93.5
2017-01-01T01:40:27.484Z,93.5
2017-01-01T01:40:55.544Z,93.07
2017-01-01T01:41:23.904Z,93.16
2017-01-01T01:41:52.174Z,93.35
2017-01-01T01:42:20.131Z,93.45
2017-01-01T01:42:48.061Z,93.35
2017-01-01T01:43:16.048Z,93.45
2017-01-01T01:44:27.340Z,93.74
2017-01-01T01:44:55.327Z,93.55
2017-01-01T01:45:23.310Z,93.35
2017-01-01T01:45:51.237Z,93.65
2017-01-01T01:46:19.381Z,93.74
2017-01-01T01:46:47.619Z,93.74
2017-01-01T01:47:15.792Z,93.65
2017-01-01T01:47:43.783Z,93.65
2017-01-01T01:48:12.088Z,93.65
2017-01-01T01:48:40.292Z,94.23
2017-01-01T01:49:08.561Z,94.23
2017-01-01T01:50:19.757Z,93.94
2017-01-01T01:50:47.829Z,93.55
2017-01-01T01:51:15.904Z,93.65
2017-01-01T01:51:44.107Z,93.74
2017-01-01T01:52:12.443Z,93.74
2017-01-01T01:52:40.681Z,93.74
2017-01-01T01:53:08.860Z,94.04
2017-01-01T01:53:37.132Z,93.65
2017-01-01T01:54:05.338Z,93.65
2017-01-01T01:54:33.459Z,93.35
2017-01-01T01:55:01.543Z,93.84
2017-01-01T01:56:12.931Z,93.84
2017-01-01T01:56:41.097Z,93.74
2017-01-01T01:57:09.255Z,93.84
2017-01-01T01:57:37.360Z,93.65
2017-01-01T01:58:05.694Z,93.65
2017-01-01T01:58:33.936Z,93.35
2017-01-01T01:59:02.205Z,93.55
2017-01-01T01:59:30.373Z,93.65
2017-01-01T01:59:58.399Z,93.55
2017-01-01T02:00:26.428Z,93.55
2017-01-01T02:00:54.599Z,93.74
2017-01-01T02:02:05.899Z,93.65
2017-01-01T02:02:34.160Z,93.84
2017-01-01T02:03:02.413Z,93.84
2017-01-01T02:03:30.619Z,93.55
2017-01-01T02:03:58.678Z,93.45
2017-01-01T02:04:26.826Z,93.45
2017-01-01T02:04:55.095Z,93.35
2017-01-01T02:05:23.274Z,93.55
2017-01-01T02:05:51.393Z,93.45
2017-01-01T02:06:19.703Z,93.55
2017-01-01T02:06:47.974Z,93.35
2017-01-01T02:07:59.360Z,93.16
2017-01-01T02:08:27.623Z,93.35
2017-01-01T02:08:55.783Z,93.21
2017-01-01T02:09:23.891Z,93.5
2017-01-01T02:09:52.044Z,92.72
2017-01-01T02:10:20.137Z,92.72
2017-01-01T02:10:48.313Z,92.82
2017-01-01T02:11:16.681Z,92.53
2017-01-01T02:11:44.801Z,92.53
2017-01-01T02:12:13.098Z,92.72
2017-01-01T02:12:41.368Z,92.53
2017-01-01T02:13:52.573Z,92.92
2017-01-01T02:14:20.858Z,92.72
2017-01-01T02:14:49.209Z,92.33
2017-01-01T02:15:17.221Z,92.72
2017-01-01T02:15:45.555Z,92.72
2017-01-01T02:16:13.617Z,92.63
2017-01-01T02:16:41.890Z,92.87
2017-01-01T02:17:10.161Z,92.87
2017-01-01T02:17:38.281Z,92.58
2017-01-01T02:18:06.217Z,92.87
2017-01-01T02:18:34.488Z,93.11
2017-01-01T02:19:45.695Z,93.16
2017-01-01T02:20:13.867Z,93.35
2017-01-01T02:20:42.116Z,93.26
2017-01-01T02:21:10.224Z,92.97
2017-01-01T02:21:38.371Z,93.35
2017-01-01T02:22:06.713Z,93.35
2017-01-01T02:22:35.076Z,93.45
2017-01-01T02:23:03.287Z,93.26
2017-01-01T02:23:31.504Z,93.55
2017-01-01T02:23:59.714Z,93.65
2017-01-01T02:24:27.886Z,93.65
2017-01-01T02:25:39.001Z,93.84
2017-01-01T02:26:07.165Z,93.45
2017-01-01T02:26:35.418Z,93.65
2017-01-01T02:27:03.626Z,93.74
2017-01-01T02:27:31.866Z,94.04
2017-01-01T02:28:00.208Z,93.84
2017-01-01T02:28:28.478Z,93.94
2017-01-01T02:28:56.846Z,93.84
2017-01-01T02:29:24.967Z,93.65
2017-01-01T02:29:53.175Z,93.65
2017-01-01T02:30:21.354Z,93.65
2017-01-01T02:31:32.467Z,94.32
2017-01-01T02:32:00.732Z,94.23
2017-01-01T02:32:28.985Z,93.84
2017-01-01T02:32:57.095Z,93.84
2017-01-01T02:33:25.332Z,94.13
2017-01-01T02:33:53.486Z,94.23
2017-01-01T02:34:21.845Z,94.32
2017-01-01T02:34:50.209Z,94.23
2017-01-01T02:35:18.419Z,94.32
2017-01-01T02:35:46.442Z,94.04
2017-01-01T02:36:14.531Z,93.74
2017-01-01T02:37:25.623Z,93.35
2017-01-01T02:37:53.789Z,93.55
2017-01-01T02:38:21.949Z,93.26
2017-01-01T02:38:50.053Z,93.4
2017-01-01T02:39:18.104Z,93.07
2017-01-01T02:39:46.344Z,93.02
2017-01-01T02:40:14.513Z,93.11
2017-01-01T02:40:42.687Z,93.02
2017-01-01T02:41:10.802Z,93.11
2017-01-01T02:41:38.921Z,93.02
2017-01-01T02:42:07.188Z,93.4
2017-01-01T02:43:18.487Z,93.02
2017-01-01T02:43:46.753Z,92.92
2017-01-01T02:44:14.915Z,92.72
2017-01-01T02:44:43.211Z,93.5
2017-01-01T02:45:11.264Z,93.3
2017-01-01T02:45:39.507Z,92.87
2017-01-01T02:46:07.685Z,93.21
2017-01-01T02:46:35.768Z,93.4
2017-01-01T02:47:03.887Z,93.26
2017-01-01T02:47:32.001Z,93.26
2017-01-01T02:48:00.265Z,93.55
2017-01-01T02:49:11.465Z,93.4
2017-01-01T02:49:39.578Z,93.07
2017-01-01T02:50:07.922Z,93.55
2017-01-01T02:50:36.220Z,93.26
2017-01-01T02:51:04.272Z,93.45
2017-01-01T02:51:32.552Z,93.55
2017-01-01T02:52:00.729Z,93.35
2017-01-01T02:52:28.904Z,93.26
2017-01-01T02:52:57.019Z,93.65
2017-01-01T02:53:25.040Z,93.84
2017-01-01T02:53:53.215Z,93.74
2017-01-01T02:55:04.325Z,93.5
2017-01-01T02:55:32.682Z,93.6
2017-01-01T02:56:00.838Z,93.6
2017-01-01T02:56:28.941Z,93.3
2017-01-01T02:56:56.995Z,93.11
2017-01-01T02:57:25.330Z,93.4
2017-01-01T02:57:53.411Z,93.3
2017-01-01T02:58:21.773Z,93.5
2017-01-01T02:58:49.888Z,93.4
2017-01-01T02:59:18.000Z,93.5
2017-01-01T02:59:46.270Z,92.82
2017-01-01T03:00:57.497Z,92.33
2017-01-01T03:01:25.764Z,92.33
2017-01-01T03:01:54.016Z,92.72
2017-01-01T03:02:22.126Z,92.63
2017-01-01T03:02:50.371Z,92.72
2017-01-01T03:03:18.616Z,92.92
2017-01-01T03:03:46.791Z,93.11
2017-01-01T03:04:15.151Z,93.3
2017-01-01T03:04:43.274Z,93.11
2017-01-01T03:05:11.395Z,93.4
2017-01-01T03:05:39.662Z,93.11
2017-01-01T03:06:50.960Z,93.4
2017-01-01T03:07:19.225Z,93.3
2017-01-01T03:07:47.485Z,93.4
2017-01-01T03:08:15.593Z,93.4
2017-01-01T03:08:43.657Z,93.3
2017-01-01T03:09:11.710Z,93.4
2017-01-01T03:09:39.891Z,93.4
2017-01-01T03:10:08.255Z,93.6
2017-01-01T03:10:36.377Z,92.72
2017-01-01T03:11:04.585Z,93.21
2017-01-01T03:11:32.858Z,93.21
2017-01-01T03:12:44.063Z,93.11
2017-01-01T03:13:12.241Z,93.4
2017-01-01T03:13:40.497Z,92.92
2017-01-01T03:14:08.700Z,93.3
2017-01-01T03:14:36.945Z,93.21
2017-01-01T03:15:05.190Z,93.26
2017-01-01T03:15:33.463Z,92.92
2017-01-01T03:16:01.829Z,92.63
2017-01-01T03:16:30.137Z,92.92
2017-01-01T03:16:58.346Z,92.72
2017-01-01T03:17:26.704Z,92.92
2017-01-01T03:18:38.009Z,92.82
2017-01-01T03:19:06.090Z,92.53
2017-01-01T03:19:34.444Z,92.05
2017-01-01T03:20:02.551Z,91.66
2017-01-01T03:20:30.705Z,91.85
2017-01-01T03:20:58.949Z,91.66
2017-01-01T03:21:27.225Z,91.37
2017-01-01T03:21:55.410Z,91.56
2017-01-01T03:22:23.714Z,91.47
2017-01-01T03:22:52.026Z,91.75
2017-01-01T03:23:20.297Z,91.85
2017-01-01T03:24:31.500Z,92.14
2017-01-01T03:24:59.859Z,91.75
2017-01-01T03:25:28.211Z,91.75
2017-01-01T03:25:56.320Z,92.14
2017-01-01T03:26:24.469Z,91.47
2017-01-01T03:26:52.807Z,91.85
2017-01-01T03:27:21.172Z,91.56
2017-01-01T03:27:49.540Z,92.24
2017-01-01T03:28:17.752Z,91.75
2017-01-01T03:28:45.962Z,91.75
2017-01-01T03:29:14.316Z,91.75
2017-01-01T03:30:25.611Z,91.71
2017-01-01T03:30:53.786Z,91.08
2017-01-01T03:31:22.037Z,91.17
2017-01-01T03:31:50.142Z,91.31
2017-01-01T03:32:18.383Z,90.88
2017-01-01T03:32:46.625Z,90.88
2017-01-01T03:33:14.894Z,91.08
2017-01-01T03:33:43.072Z,91.08
2017-01-01T03:34:11.208Z,90.98
2017-01-01T03:34:39.318Z,90.88
2017-01-01T03:35:07.491Z,90.78
2017-01-01T03:36:18.692Z,90.83
2017-01-01T03:36:46.855Z,90.64
2017-01-01T03:37:15.107Z,90.54
2017-01-01T03:37:43.213Z,90.5
2017-01-01T03:38:11.472Z,90.4
2017-01-01T03:38:39.626Z,90.3
2017-01-01T03:39:07.890Z,90.54
2017-01-01T03:39:35.974Z,90.88
2017-01-01T03:40:04.187Z,90.98
2017-01-01T03:40:32.303Z,91.08
2017-01-01T03:41:00.666Z,90.54
2017-01-01T03:42:11.970Z,90.98
2017-01-01T03:42:40.231Z,90.64
2017-01-01T03:43:08.493Z,91.08
2017-01-01T03:43:36.697Z,90.78
2017-01-01T03:44:04.933Z,90.93
2017-01-01T03:44:33.268Z,90.93
2017-01-01T03:45:01.539Z,90.93
2017-01-01T03:45:29.907Z,90.73
2017-01-01T03:45:58.118Z,90.64
2017-01-01T03:46:26.325Z,90.54
2017-01-01T03:46:54.507Z,90.73
2017-01-01T03:48:05.617Z,91.22
2017-01-01T03:48:33.783Z,91.31
2017-01-01T03:49:01.846Z,90.93
2017-01-01T03:49:29.767Z,90.44
2017-01-01T03:49:58.003Z,90.93
2017-01-01T03:50:26.149Z,90.83
2017-01-01T03:50:54.515Z,90.78
2017-01-01T03:51:22.686Z,90.78
2017-01-01T03:51:50.804Z,90.5
2017-01-01T03:52:18.821Z,90.59
2017-01-01T03:52:46.929Z,90.78
2017-01-01T03:53:58.037Z,90.83
2017-01-01T03:54:26.206Z,90.73
2017-01-01T03:54:54.271Z,90.78
2017-01-01T03:55:22.281Z,90.34
2017-01-01T03:55:50.426Z,90.64
2017-01-01T03:56:18.759Z,90.44
2017-01-01T03:56:46.839Z,90.54
2017-01-01T03:57:14.920Z,90.69
2017-01-01T03:57:43.129Z,91.02
2017-01-01T03:58:11.152Z,91.12
2017-01-01T03:58:39.245Z,90.73
2017-01-01T03:59:50.452Z,90.69
2017-01-01T04:00:18.620Z,90.4
2017-01-01T04:00:46.870Z,90.59
2017-01-01T04:01:15.063Z,90.64
2017-01-01T04:01:43.118Z,90.5
2017-01-01T04:02:11.266Z,90.3
2017-01-01T04:02:39.344Z,90.01
2017-01-01T04:03:07.421Z,90.06
2017-01-01T04:03:35.538Z,90.4
2017-01-01T04:04:03.464Z,90.3
2017-01-01T04:04:31.453Z,90.59
2017-01-01T04:05:42.659Z,90.4
2017-01-01T04:06:10.729Z,90.59
2017-01-01T04:06:38.886Z,90.59
2017-01-01T04:07:06.998Z,90.78
2017-01-01T04:07:35.150Z,90.88
2017-01-01T04:08:03.386Z,90.5
2017-01-01T04:08:31.374Z,90.4
2017-01-01T04:08:59.551Z,90.4
2017-01-01T04:09:27.671Z,90.59
2017-01-01T04:09:55.974Z,90.01
2017-01-01T04:10:24.153Z,89.82
2017-01-01T04:11:35.448Z,90.4
2017-01-01T04:12:03.813Z,90.5
2017-01-01T04:12:32.065Z,89.92
2017-01-01T04:13:00.083Z,90.16
2017-01-01T04:13:28.319Z,90.4
2017-01-01T04:13:56.561Z,90.78
2017-01-01T04:14:24.738Z,90.4
2017-01-01T04:14:53.012Z,90.3
2017-01-01T04:15:21.223Z,90.5
2017-01-01T04:15:49.531Z,90.69
2017-01-01T04:16:17.803Z,90.26
2017-01-01T04:17:29.194Z,89.92
2017-01-01T04:17:57.455Z,89.77
2017-01-01T04:18:25.709Z,90.36
2017-01-01T04:18:53.723Z,90.45
2017-01-01T04:19:21.966Z,90.26
2017-01-01T04:19:50.215Z,90.45
2017-01-01T04:20:18.300Z,90.64
2017-01-01T04:20:46.474Z,90.94
2017-01-01T04:21:14.709Z,91.52
2017-01-01T04:21:43.014Z,91.22
2017-01-01T04:22:11.185Z,91.13
2017-01-01T04:23:22.390Z,91.61
2017-01-01T04:23:50.652Z,91.81
2017-01-01T04:24:19.004Z,91.52
2017-01-01T04:24:47.114Z,91.9
2017-01-01T04:25:15.355Z,92
2017-01-01T04:25:43.595Z,92.19
2017-01-01T04:26:11.866Z,92.1
2017-01-01T04:26:40.141Z,92.39
2017-01-01T04:27:08.448Z,92.19
2017-01-01T04:27:36.563Z,92.19
2017-01-01T04:28:04.925Z,92.29
2017-01-01T04:29:16.133Z,92.49
2017-01-01T04:29:44.391Z,92.49
2017-01-01T04:30:12.645Z,92.49
2017-01-01T04:30:40.759Z,92.39
2017-01-01T04:31:08.999Z,92.77
2017-01-01T04:31:36.968Z,92.77
2017-01-01T04:32:05.147Z,92.68
2017-01-01T04:32:33.323Z,92.68
2017-01-01T04:33:01.633Z,92.58
2017-01-01T04:33:29.748Z,92.97
2017-01-01T04:33:58.010Z,92.87
2017-01-01T04:35:09.210Z,92.63
2017-01-01T04:35:37.286Z,92.72
2017-01-01T04:36:05.262Z,92.72
2017-01-01T04:36:33.554Z,92.29
2017-01-01T04:37:01.699Z,92.53
2017-01-01T04:37:30.035Z,92.53
2017-01-01T04:37:58.206Z,92.33
2017-01-01T04:38:26.383Z,92.33
2017-01-01T04:38:54.504Z,92.53
2017-01-01T04:39:22.615Z,92.14
2017-01-01T04:39:50.604Z,92.33
2017-01-01T04:41:01.807Z,92.24
2017-01-01T04:41:29.972Z,92.24
2017-01-01T04:41:58.321Z,92.24
2017-01-01T04:42:26.429Z,92.05
2017-01-01T04:42:54.485Z,92.05
2017-01-01T04:43:22.641Z,92
2017-01-01T04:43:51.001Z,91.85
2017-01-01T04:44:19.274Z,91.52
2017-01-01T04:44:47.391Z,91.56
2017-01-01T04:45:15.600Z,91.71
2017-01-01T04:45:43.870Z,91.71
2017-01-01T04:46:54.979Z,91.81
2017-01-01T04:47:23.243Z,91.71
2017-01-01T04:47:51.310Z,91.9
2017-01-01T04:48:19.606Z,92.19
2017-01-01T04:48:47.845Z,92.05
2017-01-01T04:49:16.089Z,92
2017-01-01T04:49:44.365Z,92.39
2017-01-01T04:50:12.633Z,92.19
2017-01-01T04:50:40.942Z,91.66
2017-01-01T04:51:09.242Z,91.66
2017-01-01T04:51:37.416Z,91.75
2017-01-01T04:52:48.623Z,92.05
2017-01-01T04:53:16.885Z,92.05
2017-01-01T04:53:45.141Z,91.95
2017-01-01T04:54:13.260Z,91.85
2017-01-01T04:54:41.590Z,92.43
2017-01-01T04:55:09.833Z,91.95
2017-01-01T04:55:38.097Z,92.05
2017-01-01T04:56:06.272Z,91.95
2017-01-01T04:56:34.301Z,92.39
2017-01-01T04:57:02.417Z,92.24
2017-01-01T04:57:30.498Z,92.24
2017-01-01T04:58:41.699Z,92.19
2017-01-01T04:59:09.776Z,92.39
2017-01-01T04:59:37.935Z,92.05
2017-01-01T05:00:05.950Z,92.24
2017-01-01T05:00:34.188Z,92.1
2017-01-01T05:01:02.335Z,92.39
2017-01-01T05:01:30.604Z,92.14
2017-01-01T05:01:58.672Z,92.49
2017-01-01T05:02:26.682Z,92.43
2017-01-01T05:02:54.880Z,92.33
2017-01-01T05:03:23.025Z,92.49
2017-01-01T05:04:34.150Z,92.77
2017-01-01T05:05:02.204Z,93.07
2017-01-01T05:05:30.332Z,93.07
2017-01-01T05:05:58.539Z,92.97
2017-01-01T05:06:26.777Z,92.87
2017-01-01T05:06:54.803Z,93.26
2017-01-01T05:07:22.795Z,93.16
2017-01-01T05:07:51.031Z,93.16
2017-01-01T05:08:19.133Z,93.16
2017-01-01T05:08:47.240Z,92.19
2017-01-01T05:09:15.292Z,92.58
2017-01-01T05:10:26.502Z,92.19
2017-01-01T05:10:54.554Z,91.71
2017-01-01T05:11:22.684Z,92.1
2017-01-01T05:11:50.796Z,92
2017-01-01T05:12:18.942Z,92.29
2017-01-01T05:12:47.060Z,92.49
2017-01-01T05:13:15.327Z,92.29
2017-01-01T05:13:43.477Z,92.39
2017-01-01T05:14:11.579Z,92.29
2017-01-01T05:14:39.775Z,92.29
2017-01-01T05:15:07.920Z,92.87
2017-01-01T05:16:19.134Z,92.68
2017-01-01T05:16:47.365Z,92.58
2017-01-01T05:17:15.499Z,92.77
2017-01-01T05:17:43.609Z,92.87
2017-01-01T05:18:11.759Z,92.77
2017-01-01T05:18:39.884Z,92.97
2017-01-01T05:19:08.155Z,92.58
2017-01-01T05:19:36.402Z,92.29
2017-01-01T05:20:04.416Z,92.29
2017-01-01T05:20:32.621Z,92.19
2017-01-01T05:21:00.857Z,92.39
2017-01-01T05:22:12.075Z,92
2017-01-01T05:22:40.317Z,92
2017-01-01T05:23:08.353Z,92
2017-01-01T05:23:36.560Z,92
2017-01-01T05:24:04.706Z,91.71
2017-01-01T05:24:32.735Z,91.61
2017-01-01T05:25:01.006Z,92.1
2017-01-01T05:25:29.163Z,92.19
2017-01-01T05:25:57.264Z,92.1
2017-01-01T05:26:25.284Z,92.19
2017-01-01T05:26:53.244Z,92.1
2017-01-01T05:28:04.542Z,92.19
2017-01-01T05:28:32.775Z,92.1
2017-01-01T05:29:00.905Z,92.19
2017-01-01T05:29:29.109Z,92.29
2017-01-01T05:29:57.171Z,92.39
2017-01-01T05:30:25.385Z,92.39
2017-01-01T05:30:53.567Z,92.43
2017-01-01T05:31:21.902Z,92.58
2017-01-01T05:31:50.005Z,92.39
2017-01-01T05:32:18.210Z,92.49
2017-01-01T05:32:46.446Z,92.39
2017-01-01T05:33:57.654Z,92.49
2017-01-01T05:34:25.794Z,92.29
2017-01-01T05:34:54.017Z,92.58
2017-01-01T05:35:22.220Z,92
2017-01-01T05:35:50.374Z,92
2017-01-01T05:36:18.683Z,91.71
2017-01-01T05:36:46.863Z,91.42
2017-01-01T05:37:15.106Z,90.94
2017-01-01T05:37:43.035Z,91.13
2017-01-01T05:38:11.227Z,91.61
2017-01-01T05:38:39.468Z,91.52
2017-01-01T05:39:50.770Z,92.29
2017-01-01T05:40:18.917Z,92
2017-01-01T05:40:47.157Z,92
2017-01-01T05:41:15.349Z,92
2017-01-01T05:41:43.493Z,92.49
2017-01-01T05:42:11.526Z,91.71
2017-01-01T05:42:39.798Z,92.39
2017-01-01T05:43:07.950Z,92.19
2017-01-01T05:43:35.971Z,92.24
2017-01-01T05:44:03.885Z,92.87
2017-01-01T05:44:31.944Z,92.83
2017-01-01T05:45:43.244Z,93.31
2017-01-01T05:46:11.388Z,92.83
2017-01-01T05:46:39.616Z,92.63
2017-01-01T05:47:07.726Z,92.73
2017-01-01T05:47:35.869Z,93.41
2017-01-01T05:48:03.992Z,93.02
2017-01-01T05:48:32.170Z,93.21
2017-01-01T05:49:00.413Z,93.21
2017-01-01T05:49:28.709Z,93.51
2017-01-01T05:49:56.908Z,93.89
2017-01-01T05:50:25.238Z,93.99
2017-01-01T05:51:36.349Z,94.18
2017-01-01T05:52:04.683Z,94.18
2017-01-01T05:52:32.908Z,94.37
2017-01-01T05:53:00.933Z,94.47
2017-01-01T05:53:29.078Z,94.71
2017-01-01T05:53:57.017Z,94.67
2017-01-01T05:54:25.379Z,95.05
2017-01-01T05:54:53.436Z,94.96
2017-01-01T05:55:21.541Z,94.91
2017-01-01T05:55:49.831Z,95.29
2017-01-01T05:56:18.161Z,95.49
2017-01-01T05:57:29.464Z,95.49
2017-01-01T05:57:57.700Z,95.97
2017-01-01T05:58:25.932Z,95.29
2017-01-01T05:58:54.229Z,95.29
2017-01-01T05:59:22.469Z,95.59
2017-01-01T05:59:50.591Z,95.29
2017-01-01T06:00:18.860Z,95.2
2017-01-01T06:00:47.098Z,95.25
2017-01-01T06:01:15.206Z,95.25
2017-01-01T06:01:43.396Z,95.64
2017-01-01T06:02:11.729Z,95.25
2017-01-01T06:03:22.844Z,95.54
2017-01-01T06:03:51.081Z,95.39
2017-01-01T06:04:19.306Z,95.29
2017-01-01T06:04:47.524Z,95.49
2017-01-01T06:05:15.577Z,95.59
2017-01-01T06:05:43.797Z,96.36
2017-01-01T06:06:11.973Z,96.17
2017-01-01T06:06:40.123Z,96.36
2017-01-01T06:07:08.416Z,96.17
2017-01-01T06:07:36.517Z,96.75
2017-01-01T06:08:04.660Z,96.65
2017-01-01T06:09:15.961Z,96.75
2017-01-01T06:09:44.196Z,96.75
2017-01-01T06:10:12.518Z,96.36
2017-01-01T06:10:40.724Z,96.55
2017-01-01T06:11:08.875Z,96.36
2017-01-01T06:11:37.092Z,96.75
2017-01-01T06:12:05.452Z,96.94
2017-01-01T06:12:33.505Z,96.55
2017-01-01T06:13:01.427Z,96.55
2017-01-01T06:13:29.529Z,96.65
2017-01-01T06:13:57.676Z,96.94
2017-01-01T06:15:08.977Z,96.75
2017-01-01T06:15:37.121Z,96.46
2017-01-01T06:16:05.250Z,96.84
2017-01-01T06:16:33.361Z,96.84
2017-01-01T06:17:01.415Z,97.42
2017-01-01T06:17:29.624Z,97.33
2017-01-01T06:17:57.800Z,97.62
2017-01-01T06:18:26.043Z,96.84
2017-01-01T06:18:54.051Z,97.33
2017-01-01T06:19:22.250Z,97.62
2017-01-01T06:19:50.397Z,97.62
2017-01-01T06:21:01.610Z,97.23
2017-01-01T06:21:29.751Z,98
2017-01-01T06:21:57.879Z,97.52
2017-01-01T06:22:26.188Z,97.42
2017-01-01T06:22:54.429Z,97.72
2017-01-01T06:23:22.734Z,97.72
2017-01-01T06:23:51.002Z,97.91
2017-01-01T06:24:18.964Z,97.52
2017-01-01T06:24:47.258Z,97.42
2017-01-01T06:25:15.444Z,97.52
2017-01-01T06:25:43.773Z,97.91
2017-01-01T06:26:55.079Z,97.62
2017-01-01T06:27:23.313Z,97.72
2017-01-01T06:27:51.637Z,97.62
2017-01-01T06:28:19.835Z,97.62
2017-01-01T06:28:47.982Z,97.52
2017-01-01T06:29:16.197Z,97.52
2017-01-01T06:29:44.375Z,97.72
2017-01-01T06:30:12.710Z,98.1
2017-01-01T06:30:40.912Z,97.62
2017-01-01T06:31:08.930Z,97.91
2017-01-01T06:31:37.173Z,97.81
2017-01-01T06:32:48.473Z,98.2
2017-01-01T06:33:16.709Z,98.3
2017-01-01T06:33:44.844Z,98.3
2017-01-01T06:34:12.953Z,97.42
2017-01-01T06:34:41.101Z,97.52
2017-01-01T06:35:09.319Z,97.81
2017-01-01T06:35:37.432Z,97.23
2017-01-01T06:36:05.679Z,97.72
2017-01-01T06:36:33.789Z,97.42
2017-01-01T06:37:01.893Z,97.77
2017-01-01T06:37:30.039Z,98
2017-01-01T06:38:41.245Z,98.73
2017-01-01T06:39:09.480Z,98.44
2017-01-01T06:39:37.710Z,98.44
2017-01-01T06:40:06.007Z,98.49
2017-01-01T06:40:34.062Z,98.35
2017-01-01T06:41:02.276Z,98.44
2017-01-01T06:41:30.361Z,98.44
2017-01-01T06:41:58.418Z,98.63
2017-01-01T06:42:26.619Z,98.83
2017-01-01T06:42:54.904Z,99.02
2017-01-01T06:43:23.048Z,98.83
2017-01-01T06:44:34.346Z,98.83
2017-01-01T06:45:02.490Z,99.21
2017-01-01T06:45:30.713Z,98.93
2017-01-01T06:45:58.825Z,98.93
2017-01-01T06:46:27.159Z,99.02
2017-01-01T06:46:55.192Z,99.02
2017-01-01T06:47:23.464Z,99.02
2017-01-01T06:47:51.707Z,99.6
2017-01-01T06:48:19.911Z,99.51
2017-01-01T06:48:47.921Z,99.11
2017-01-01T06:49:16.248Z,99.41
2017-01-01T06:50:27.551Z,99.02
2017-01-01T06:50:55.882Z,98.97
2017-01-01T06:51:24.115Z,99.16
2017-01-01T06:51:52.132Z,99.26
2017-01-01T06:52:20.188Z,99.07
2017-01-01T06:52:48.498Z,99.16
2017-01-01T06:53:16.771Z,99.07
2017-01-01T06:53:44.916Z,99.26
2017-01-01T06:54:12.929Z,98.88
2017-01-01T06:54:41.127Z,99.02
2017-01-01T06:55:09.366Z,98.93